createdAt,value
2023-02-01T07:19:00.770Z,100375.91
2023-02-01T07:22:03.642Z,100375.91
2023-02-01T07:25:07.122Z,100372.03
2023-02-01T07:28:09.790Z,100369.75
2023-02-01T07:31:13.215Z,100369.37
2023-02-01T07:34:17.213Z,100369.88
2023-02-01T07:37:19.619Z,100378.31
2023-02-01T07:40:29.338Z,100382.59
2023-02-01T07:43:32.071Z,100384.88
2023-02-01T07:46:34.731Z,100392.87
2023-02-01T07:49:38.497Z,100395.25
2023-02-01T07:52:41.752Z,100386.34
2023-02-01T07:55:44.136Z,100374.09
2023-02-01T07:58:48.530Z,100388.53
2023-02-01T08:01:50.963Z,100381.66
2023-02-01T08:04:54.968Z,100388.16
2023-02-01T08:07:57.372Z,100385.34
2023-02-01T08:11:00.068Z,100392.53
2023-02-01T08:14:02.504Z,100377.09
2023-02-01T08:17:05.236Z,100375.59
2023-02-01T08:20:10.989Z,100383.53
2023-02-01T08:23:13.669Z,100381.41
2023-02-01T08:26:17.360Z,100385.91
2023-02-01T08:29:20.050Z,100394.69
2023-02-01T08:32:22.396Z,100393.47
2023-02-01T08:35:41.453Z,100397.88
2023-02-01T08:38:45.409Z,100389.44
2023-02-01T08:42:08.043Z,100403.25
2023-02-01T08:45:11.041Z,100407.31
2023-02-01T08:48:13.727Z,100420.37
2023-02-01T08:51:18.319Z,100424.44
2023-02-01T08:54:21.693Z,100428.47
2023-02-01T08:57:24.229Z,100432.50
2023-02-01T09:00:26.993Z,100435.09
2023-02-01T09:03:29.463Z,100438.78
2023-02-01T09:06:33.424Z,100429.75
2023-02-01T09:09:35.837Z,100444.81
2023-02-01T09:12:38.765Z,100429.69
2023-02-01T09:15:41.226Z,100427.06
2023-02-01T09:18:55.524Z,100436.38
2023-02-01T09:22:05.509Z,100421.53
2023-02-01T09:25:08.691Z,100422.91
2023-02-01T09:28:11.074Z,100423.13
2023-02-01T09:31:13.814Z,100413.37
2023-02-01T09:34:16.342Z,100419.78
2023-02-01T09:37:20.330Z,100399.44
2023-02-01T09:40:23.089Z,100403.59
2023-02-01T09:43:33.058Z,100407.88
2023-02-01T09:46:35.487Z,100406.44
2023-02-01T09:49:43.594Z,100400.72
2023-02-01T09:52:51.279Z,100394.97
2023-02-01T09:55:55.632Z,100399.69
2023-02-01T09:59:01.762Z,100395.09
2023-02-01T10:02:05.299Z,100402.87
2023-02-01T10:05:13.710Z,100403.16
2023-02-01T10:08:20.510Z,100395.97
2023-02-01T10:11:28.071Z,100414.56
2023-02-01T10:14:41.868Z,100407.66
2023-02-01T10:17:51.145Z,100408.38
2023-02-01T10:20:57.564Z,100402.19
2023-02-01T10:24:17.636Z,100384.22
2023-02-01T10:27:21.456Z,100393.16
2023-02-01T10:30:24.978Z,100365.19
2023-02-01T10:33:28.607Z,100368.38
2023-02-01T10:36:36.578Z,100354.06
2023-02-01T10:39:40.286Z,100343.16
2023-02-01T10:42:42.806Z,100331.25
2023-02-01T10:45:45.137Z,100329.16
2023-02-01T10:48:48.285Z,100340.53
2023-02-01T10:51:53.607Z,100345.87
2023-02-01T10:54:57.597Z,100340.62
2023-02-01T10:58:01.207Z,100339.75
2023-02-01T11:01:04.402Z,100335.72
2023-02-01T11:04:06.882Z,100339.75
2023-02-01T11:07:14.457Z,100328.53
2023-02-01T11:10:39.294Z,100322.28
2023-02-01T11:13:41.977Z,100317.00
2023-02-01T11:16:48.314Z,100305.09
2023-02-01T11:19:57.660Z,100319.75
2023-02-01T11:23:00.030Z,100302.78
2023-02-01T11:26:10.992Z,100296.62
2023-02-01T11:29:14.292Z,100297.56
2023-02-01T11:32:18.528Z,100293.09
2023-02-01T11:35:21.778Z,100300.69
2023-02-01T11:38:28.105Z,100284.97
2023-02-01T11:41:33.303Z,100276.91
2023-02-01T11:44:36.876Z,100272.66
2023-02-01T11:47:40.258Z,100265.25
2023-02-01T11:50:45.356Z,100268.47
2023-02-01T11:54:00.178Z,100269.00
2023-02-01T11:57:12.910Z,100264.41
2023-02-01T12:00:28.657Z,100255.91
2023-02-01T12:03:55.225Z,100254.03
2023-02-01T12:06:58.502Z,100246.50
2023-02-01T12:10:06.655Z,100247.41
2023-02-01T12:13:22.536Z,100234.50
2023-02-01T12:16:29.869Z,100233.31
2023-02-01T12:19:45.845Z,100222.63
2023-02-01T12:22:55.566Z,100226.03
2023-02-01T12:26:04.562Z,100230.44
2023-02-01T12:29:30.370Z,100225.25
2023-02-01T12:32:44.281Z,100227.13
2023-02-01T12:35:55.853Z,100227.84
2023-02-01T12:39:02.739Z,100224.75
2023-02-01T12:42:10.871Z,100220.25
2023-02-01T12:45:16.664Z,100232.75
2023-02-01T12:48:30.873Z,100239.75
2023-02-01T12:51:35.257Z,100248.31
2023-02-01T12:54:43.910Z,100263.84
2023-02-01T12:57:47.257Z,100267.19
2023-02-01T13:00:53.143Z,100273.97
2023-02-01T13:04:00.974Z,100297.69
2023-02-01T13:07:08.509Z,100290.41
2023-02-01T13:10:13.861Z,100268.53
2023-02-01T13:13:19.951Z,100268.97
2023-02-01T13:16:28.098Z,100270.00
2023-02-01T13:19:35.107Z,100255.56
2023-02-01T13:22:39.658Z,100256.50
2023-02-01T13:25:48.182Z,100235.62
2023-02-01T13:28:51.559Z,100225.09
2023-02-01T13:32:10.533Z,100215.69
2023-02-01T13:35:35.570Z,100203.59
2023-02-01T13:39:01.881Z,100202.72
2023-02-01T13:42:05.324Z,100198.03
2023-02-01T13:45:17.914Z,100189.16
2023-02-01T13:48:24.052Z,100194.84
2023-02-01T13:51:38.246Z,100206.44
2023-02-01T13:54:40.775Z,100200.66
2023-02-01T13:57:44.669Z,100208.81
2023-02-01T14:00:47.195Z,100214.41
2023-02-01T14:03:51.693Z,100217.09
2023-02-01T14:06:55.508Z,100218.28
2023-02-01T14:09:59.117Z,100216.13
2023-02-01T14:13:05.098Z,100211.13
2023-02-01T14:16:15.854Z,100211.84
2023-02-01T14:19:22.999Z,100213.47
2023-02-01T14:22:34.798Z,100221.19
2023-02-01T14:25:37.183Z,100221.88
2023-02-01T14:28:43.805Z,100201.91
2023-02-01T14:31:52.337Z,100195.38
2023-02-01T14:34:58.086Z,100196.87
2023-02-01T14:38:00.991Z,100218.00
2023-02-01T14:41:26.105Z,100230.31
2023-02-01T14:44:30.700Z,100249.56
2023-02-01T14:47:33.980Z,100246.91
2023-02-01T14:50:41.181Z,100249.44
2023-02-01T14:53:44.539Z,100268.09
2023-02-01T14:56:46.884Z,100273.25
2023-02-01T14:59:49.514Z,100263.97
2023-02-01T15:02:52.375Z,100251.66
2023-02-01T15:06:01.694Z,100242.88
2023-02-01T15:09:05.388Z,100266.94
2023-02-01T15:12:21.493Z,100255.25
2023-02-01T15:15:25.119Z,100249.03
2023-02-01T15:18:28.135Z,100230.06
2023-02-01T15:21:33.184Z,100246.34
2023-02-01T15:24:35.968Z,100242.78
2023-02-01T15:27:38.476Z,100236.75
2023-02-01T15:30:41.314Z,100249.28
2023-02-01T15:33:43.747Z,100251.25
2023-02-01T15:37:01.953Z,100258.41
2023-02-01T15:40:20.477Z,100235.88
2023-02-01T15:43:23.341Z,100245.78
2023-02-01T15:46:31.128Z,100234.56
2023-02-01T15:49:37.320Z,100231.53
2023-02-01T15:52:41.310Z,100233.41
2023-02-01T15:55:43.970Z,100223.00
2023-02-01T15:58:47.458Z,100224.66
2023-02-01T16:01:50.991Z,100233.72
